16 mei 2022

Tijd Code Weer Temp. Zicht Wolken Wind METAR/SPECI
15:55
M
20 °C 10 km+ 2.600 ft 250°   250° 13 kt METAR EHDL 161355Z AUTO 25013KT 190V330 9999 -RA FEW023 BKN026 OVC030 20/15 Q1016 BLU
15:25
V
22 °C 10 km+ 10.000 ft 250°   250° 10 kt METAR EHDL 161325Z AUTO 25010KT 200V310 9999 FEW019 SCT072 OVC100 22/16 Q1015 BLU
14:55
V
23 °C 10 km+ 4.400 ft 240°   240° 12 kt METAR EHDL 161255Z AUTO 24012KT 180V300 9999 OVC044 23/16 Q1015 BLU
14:25
V
22 °C 10 km+ 8.700 ft 250°   250° 12 kt METAR EHDL 161225Z AUTO 25012KT 180V320 9999 -TSRA +DZ FEW025CB SCT064 BKN087 22/16 Q1015 BLU
13:55
V
25 °C 10 km+ 4.500 ft Var   Var 8 kt METAR EHDL 161155Z AUTO VRB08KT 9999 TS BKN045 FEW047CB BKN079 BKN103 25/14 Q1014 BLU
13:25
V
26 °C 10 km+ 9.900 ft 250°   250° 7 kt METAR EHDL 161125Z AUTO 25007KT 150V290 9999 FEW077 OVC099 26/13 Q1014 BLU
12:55
V
25 °C 10 km+ 9.000 ft Var   Var 6 kt METAR EHDL 161055Z AUTO VRB06KT 9999 BKN090 OVC095 25/12 Q1014 BLU
12:25
V
25 °C 10 km+ 9.900 ft Var   Var 6 kt METAR EHDL 161025Z AUTO VRB06KT 9999 BKN099 BKN150 25/13 Q1014 BLU
11:55
V
23 °C 10 km+ 11.000 ft 220°   220° 7 kt METAR EHDL 160955Z AUTO 22007KT 140V300 9999 OVC110 23/12 Q1014 BLU
11:25
V
22 °C 10 km+ 10.000 ft 150°   150° 5 kt METAR EHDL 160925Z AUTO 15005KT 080V240 9999 SCT077 SCT090 OVC100 22/12 Q1014 BLU
10:55
V
21 °C 10 km+ 7.700 ft 160°   160° 6 kt METAR EHDL 160855Z AUTO 16006KT 080V200 9999 BKN077 BKN084 OVC089 21/12 Q1014 BLU
10:25
V
20 °C 10 km+ 8.000 ft 150°   150° 5 kt METAR EHDL 160825Z AUTO 15005KT 080V210 9999 SCT074 BKN080 BKN085 20/11 Q1014 BLU
09:55
V
21 °C 10 km+ 7.800 ft 170°   170° 7 kt METAR EHDL 160755Z AUTO 17007KT 110V260 9999 FEW038CB BKN078 OVC085 21/11 Q1014 BLU
09:25
V
19 °C 10 km+ 8.500 ft 140°   140° 6 kt METAR EHDL 160725Z AUTO 14006KT 090V220 9999 OVC085 19/11 Q1013 BLU
08:55
V
18 °C 10 km+ 16.000 ft 140°   140° 6 kt METAR EHDL 160655Z AUTO 14006KT 100V200 9999 FEW085 OVC160 18/10 Q1013 BLU
08:25
V
18 °C 10 km+ 17.000 ft Var   Var 7 kt METAR EHDL 160625Z AUTO VRB07KT 9999 OVC170 18/09 Q1013 BLU
07:55
V
18 °C 10 km+ 24.000 ft Var   Var 7 kt METAR EHDL 160555Z AUTO VRB07KT 9999 OVC240 18/09 Q1013 BLU
07:25
V
17 °C 10 km+ - 110°   110° 6 kt METAR EHDL 160525Z AUTO 11006KT 040V200 9999 NCD 17/09 Q1013 BLU
06:55
V
15 °C 10 km+ - 110°   110° 7 kt METAR EHDL 160455Z AUTO 11007KT 050V200 9999 FEW180 15/09 Q1013 BLU
06:25
V
15 °C 10 km+ - 100°   100° 5 kt METAR EHDL 160425Z AUTO 10005KT 070V210 9999 NCD 15/09 Q1013 BLU
05:55
V
15 °C 10 km+ - 100°   100° 6 kt METAR EHDL 160355Z AUTO 10006KT 030V190 9999 NCD 15/09 Q1013 BLU
05:25
V
15 °C 10 km+ - 100°   100° 5 kt METAR EHDL 160325Z AUTO 10005KT 020V170 9999 FEW210 15/09 Q1013 BLU
04:55
V
15 °C 10 km+ 21.000 ft Var   Var 8 kt METAR EHDL 160255Z AUTO VRB08KT 9999 OVC210 15/09 Q1013 BLU
04:25
V
15 °C 10 km+ 30.000 ft Var   Var 9 kt METAR EHDL 160225Z AUTO VRB09KT 9999 OVC300 15/08 Q1013 BLU
03:55
V
15 °C 10 km+ 30.000 ft Var   Var 6 kt METAR EHDL 160155Z AUTO VRB06KT 9999 OVC300 15/09 Q1014 BLU
03:25
V
16 °C 10 km+ - 100°   100° 6 kt METAR EHDL 160125Z AUTO 10006KT 9999 FEW310 SCT380 16/09 Q1014 BLU
02:55
V
16 °C 10 km+ 33.000 ft Var   Var 8 kt METAR EHDL 160055Z AUTO VRB08KT 9999 OVC330 16/09 Q1014 BLU
02:25
V
16 °C 10 km+ 18.000 ft 100°   100° 6 kt METAR EHDL 160025Z AUTO 10006KT 050V190 9999 OVC180 16/09 Q1014 BLU
01:55
V
17 °C 10 km+ 19.000 ft 100°   100° 7 kt METAR EHDL 152355Z AUTO 10007KT 360V160 9999 OVC190 17/09 Q1014 BLU
01:25
V
17 °C 10 km+ 18.000 ft 080°   080° 8 kt METAR EHDL 152325Z AUTO 08008KT 350V160 9999 OVC180 17/08 Q1015 BLU
00:55
V
17 °C 10 km+ 19.000 ft 080°   080° 9 kt METAR EHDL 152255Z AUTO 08009KT 350V140 9999 OVC190 17/08 Q1015 BLU
00:25
V
18 °C 10 km+ 19.000 ft 080°   080° 7 kt METAR EHDL 152225Z AUTO 08007KT 360V150 9999 OVC190 18/08 Q1015 BLU

15 mei 2022

Tijd Code Weer Temp. Zicht Wolken Wind METAR/SPECI
23:55
V
17 °C 10 km+ 19.000 ft 080°   080° 6 kt METAR EHDL 152155Z AUTO 08006KT 360V130 9999 OVC190 17/08 Q1016 BLU
23:25
V
18 °C 10 km+ 19.000 ft 080°   080° 7 kt METAR EHDL 152125Z AUTO 08007KT 350V130 9999 OVC190 18/08 Q1016 BLU
22:55
V
19 °C 10 km+ - 080°   080° 7 kt METAR EHDL 152055Z AUTO 08007KT 360V130 9999 SCT240 19/08 Q1016 BLU
22:25
V
18 °C 10 km+ - 070°   070° 7 kt METAR EHDL 152025Z AUTO 07007KT 360V110 9999 FEW250 18/08 Q1015 BLU
21:55
V
18 °C 10 km+ - 070°   070° 6 kt METAR EHDL 151955Z AUTO 07006KT 350V100 9999 NCD 18/07 Q1015 BLU
21:25
V
20 °C 10 km+ 24.000 ft 080°   080° 6 kt METAR EHDL 151925Z AUTO 08006KT 010V120 9999 BKN240 20/07 Q1015 BLU
20:55
V
21 °C 10 km+ 24.000 ft 070°   070° 7 kt METAR EHDL 151855Z AUTO 07007KT 360V110 9999 OVC240 21/07 Q1015 BLU
20:25
V
22 °C 10 km+ 21.000 ft 080°   080° 7 kt METAR EHDL 151825Z AUTO 08007KT 010V150 9999 OVC210 22/07 Q1015 BLU
19:55
V
23 °C 10 km+ 21.000 ft Var   Var 8 kt METAR EHDL 151755Z AUTO VRB08KT 9999 OVC210 23/07 Q1015 BLU
19:25
V
24 °C 10 km+ 21.000 ft Var   Var 10 kt METAR EHDL 151725Z AUTO VRB10KT 9999 OVC210 24/06 Q1016 BLU
18:55
V
25 °C 10 km+ 21.000 ft Var   Var 9 kt METAR EHDL 151655Z AUTO VRB09KT 9999 BKN210 25/06 Q1016 BLU
18:25
V
25 °C 10 km+ 21.000 ft 100°   100° 7 17 kt METAR EHDL 151625Z AUTO 10007G17KT 030V200 9999 BKN210 25/05 Q1016 BLU
17:55
V
25 °C 10 km+ - Var   Var 9 kt METAR EHDL 151555Z AUTO VRB09KT 9999 SCT210 25/05 Q1016 BLU
17:25
V
25 °C 10 km+ 21.000 ft Var   Var 9 kt METAR EHDL 151525Z AUTO VRB09KT 9999 BKN210 25/05 Q1017 BLU
16:55
V
25 °C 10 km+ - 120°   120° 9 kt METAR EHDL 151455Z AUTO 12009KT 050V210 9999 NCD 25/04 Q1017 BLU
16:25
V
25 °C 10 km+ 31.000 ft 090°   090° 7 kt METAR EHDL 151425Z AUTO 09007KT 070V220 9999 BKN310 25/05 Q1017 BLU
15:55
V
25 °C 10 km+ 29.000 ft Var   Var 10 kt METAR EHDL 151355Z AUTO VRB10KT 9999 OVC290 25/06 Q1017 BLU
15:25
V
25 °C 10 km+ 31.000 ft Var   Var 7 17 kt METAR EHDL 151325Z AUTO VRB07G17KT 9999 BKN310 25/06 Q1018 BLU
14:55
V
25 °C 10 km+ - Var   Var 7 kt METAR EHDL 151255Z AUTO VRB07KT 9999 SCT340 25/07 Q1018 BLU
14:25
V
24 °C 10 km+ - Var   Var 9 kt METAR EHDL 151225Z AUTO VRB09KT 9999 NCD 24/07 Q1018 BLU
13:55
V
24 °C 10 km+ - Var   Var 8 kt METAR EHDL 151155Z AUTO VRB08KT 9999 FEW350 24/08 Q1019 BLU
13:25
V
23 °C 10 km+ - Var   Var 9 kt METAR EHDL 151125Z AUTO VRB09KT 9999 NCD 23/07 Q1019 BLU
12:55
V
23 °C 10 km+ 34.000 ft Var   Var 8 kt METAR EHDL 151055Z AUTO VRB08KT 9999 BKN340 23/08 Q1019 BLU
12:25
V
23 °C 10 km+ 28.000 ft Var   Var 9 kt METAR EHDL 151025Z AUTO VRB09KT 9999 BKN280 23/07 Q1019 BLU
11:55
V
22 °C 10 km+ - Var   Var 9 kt METAR EHDL 150955Z AUTO VRB09KT 9999 NCD 22/07 Q1020 BLU
11:25
V
21 °C 10 km+ - 080°   080° 8 kt METAR EHDL 150925Z AUTO 08008KT 020V180 9999 SCT330 21/08 Q1020 BLU
10:55
V
21 °C 10 km+ - Var   Var 4 kt METAR EHDL 150855Z AUTO VRB04KT 9999 FEW320 21/10 Q1020 BLU
10:25
V
19 °C 10 km+ - Var   Var 4 kt METAR EHDL 150825Z AUTO VRB04KT 9999 SCT320 19/09 Q1020 BLU
09:55
V
18 °C 10 km+ - Var   Var 4 kt METAR EHDL 150755Z AUTO VRB04KT 9999 SCT330 18/09 Q1020 BLU
09:25
V
17 °C 10 km+ - Var   Var 5 kt METAR EHDL 150725Z AUTO VRB05KT 9999 NCD 17/09 Q1020 BLU
08:55
V
16 °C 10 km+ - Var   Var 6 kt METAR EHDL 150655Z AUTO VRB06KT 9999 NCD 16/09 Q1020 BLU
08:25
V
14 °C 10 km+ - Var   Var 6 kt METAR EHDL 150625Z AUTO VRB06KT 9999 NCD 14/09 Q1020 BLU
07:55
V
13 °C 10 km+ - Var   Var 5 kt METAR EHDL 150555Z AUTO VRB05KT 9999 NCD 13/08 Q1020 BLU
07:25
V
12 °C 10 km+ - Var   Var 3 kt METAR EHDL 150525Z AUTO VRB03KT 9999 FEW350 12/08 Q1020 BLU
06:55
V
11 °C 10 km+ - Var   Var 3 kt METAR EHDL 150455Z AUTO VRB03KT 9999 NCD 11/08 Q1020 BLU
06:25
V
11 °C 10 km+ - Var   Var 4 kt METAR EHDL 150425Z AUTO VRB04KT 9999 FEW350 11/07 Q1020 BLU
05:55
V
11 °C 10 km+ - 090°   090° 3 kt METAR EHDL 150355Z AUTO 09003KT 360V150 9999 NCD 11/07 Q1020 BLU
05:25
V
11 °C 10 km+ - Var   Var 3 kt METAR EHDL 150325Z AUTO VRB03KT 9999 NCD 11/07 Q1020 BLU
04:55
V
11 °C 10 km+ - 090°   090° 3 kt METAR EHDL 150255Z AUTO 09003KT 360V140 9999 NCD 11/07 Q1020 BLU
04:25
V
11 °C 10 km+ - 070°   070° 7 kt METAR EHDL 150225Z AUTO 07007KT 010V150 9999 NCD 11/07 Q1020 BLU
03:55
V
11 °C 10 km+ - 080°   080° 5 kt METAR EHDL 150155Z AUTO 08005KT 340V120 9999 SCT330 11/07 Q1021 BLU
03:25
V
12 °C 10 km+ 32.000 ft 090°   090° 4 kt METAR EHDL 150125Z AUTO 09004KT 010V120 9999 OVC320 12/07 Q1021 BLU
02:55
V
12 °C 10 km+ 34.000 ft 080°   080° 3 kt METAR EHDL 150055Z AUTO 08003KT 010V120 9999 OVC340 12/08 Q1021 BLU
02:25
V
11 °C 10 km+ 33.000 ft Var   Var 2 kt METAR EHDL 150025Z AUTO VRB02KT 9999 OVC330 11/08 Q1021 BLU
01:55
V
12 °C 10 km+ 34.000 ft 080°   080° 4 kt METAR EHDL 142355Z AUTO 08004KT 020V140 9999 OVC340 12/08 Q1021 BLU
01:25
V
12 °C 10 km+ 34.000 ft Var   Var 2 kt METAR EHDL 142325Z AUTO VRB02KT 9999 OVC340 12/08 Q1021 BLU
00:55
V
12 °C 10 km+ 35.000 ft Var   Var 2 kt METAR EHDL 142255Z AUTO VRB02KT 9999 OVC350 12/08 Q1021 BLU
00:25
V
12 °C 10 km+ 36.000 ft Var   Var 2 kt METAR EHDL 142225Z AUTO VRB02KT 9999 BKN360 12/08 Q1021 BLU

14 mei 2022

Tijd Code Weer Temp. Zicht Wolken Wind METAR/SPECI
23:55
V
10 °C 10 km+ 36.000 ft Var   Var 1 kt METAR EHDL 142155Z AUTO VRB01KT 9999 OVC360 10/07 Q1021 BLU
23:25
V
11 °C 10 km+ - 340°   340° 3 kt METAR EHDL 142125Z AUTO 34003KT 330V040 9999 SCT360 11/07 Q1021 BLU
22:55
V
12 °C 10 km+ - 340°   340° 2 kt METAR EHDL 142055Z AUTO 34002KT 9999 NCD 12/08 Q1021 BLU
22:25
V
13 °C 10 km+ - 350°   350° 3 kt METAR EHDL 142025Z AUTO 35003KT 9999 NCD 13/09 Q1021 BLU
21:55
V
14 °C 10 km+ - 010°   010° 4 kt METAR EHDL 141955Z AUTO 01004KT 9999 NCD 14/09 Q1021 BLU
21:25
V
16 °C 10 km+ - 360°   360° 5 kt METAR EHDL 141925Z AUTO 36005KT 340V080 9999 NCD 16/08 Q1021 BLU
20:55
V
18 °C 10 km+ 16.000 ft 030°   030° 6 kt METAR EHDL 141855Z AUTO 03006KT 340V070 9999 BKN160 18/08 Q1020 BLU
20:25
V
19 °C 10 km+ 16.000 ft 040°   040° 7 kt METAR EHDL 141825Z AUTO 04007KT 350V090 9999 FEW059 BKN160 19/08 Q1020 BLU
19:55
V
20 °C 10 km+ - 050°   050° 9 kt METAR EHDL 141755Z AUTO 05009KT 330V100 9999 NCD 20/09 Q1020 BLU
19:25
V
21 °C 10 km+ 6.300 ft Var   Var 10 kt METAR EHDL 141725Z AUTO VRB10KT 9999 SCT056 BKN063 21/09 Q1020 BLU
18:55
V
22 °C 10 km+ 5.900 ft Var   Var 8 kt METAR EHDL 141655Z AUTO VRB08KT 9999 OVC059 22/08 Q1020 BLU
18:25
V
22 °C 10 km+ - Var   Var 6 kt METAR EHDL 141625Z AUTO VRB06KT 9999 NCD 22/06 Q1020 BLU
17:55
V
22 °C 10 km+ - Var   Var 6 kt METAR EHDL 141555Z AUTO VRB06KT 9999 NCD 22/06 Q1020 BLU
17:25
V
22 °C 10 km+ - Var   Var 6 kt METAR EHDL 141525Z AUTO VRB06KT 9999 NCD 22/06 Q1020 BLU
16:55
V
22 °C 10 km+ 5.800 ft Var   Var 8 kt METAR EHDL 141455Z AUTO VRB08KT 9999 OVC058 22/07 Q1020 BLU
16:25
V
22 °C 10 km+ - 270°   270° 8 kt METAR EHDL 141425Z AUTO 27008KT 190V320 9999 NCD 22/07 Q1021 BLU
15:55
V
21 °C 10 km+ 5.600 ft Var   Var 5 kt METAR EHDL 141355Z AUTO VRB05KT 9999 BKN056 21/06 Q1021 BLU
Oudere gegevens

Installeer onze app

Gemakkelijke toegang tot al het luchtvaartweer op je mobiele telefoon en tablet.
Met veel functies die niet op de website beschikbaar zijn, zoals offline ondersteuning en een persoonlijke lijst van vliegvelden.